Time;durP1;ratioP1;P1;durP2;ratioP2;P2;SDS_P1;SDS_P2;PMS_P1;PMS_P2;Temp;Humidity;BMP_temperature;BMP_pressure;BME280_temperature;BME280_humidity;BME280_pressure;Samples;Min_cycle;Max_cycle;Signal;HPM_P1;HPM_P2
2022/03/24 00:01:52;;;;;;;3.70;3.40;;;18.40;45.20;;;;;;5035518;28;20608;-12
2022/03/24 00:04:18;;;;;;;4.40;3.60;;;18.40;45.10;;;;;;5034748;28;20165;-12
2022/03/24 00:06:43;;;;;;;3.90;3.50;;;18.40;45.10;;;;;;5033120;28;20199;-12
2022/03/24 00:09:09;;;;;;;4.60;3.30;;;18.40;45.10;;;;;;5015306;28;20630;-12
2022/03/24 00:11:35;;;;;;;4.63;3.70;;;18.30;45.10;;;;;;5016616;28;20477;-12
2022/03/24 00:14:01;;;;;;;4.20;3.43;;;18.30;45.10;;;;;;5018003;28;20165;-12
2022/03/24 00:16:27;;;;;;;3.70;3.30;;;18.30;45.10;;;;;;5035681;28;20458;-12
2022/03/24 00:18:53;;;;;;;3.87;3.47;;;18.30;45.20;;;;;;5035514;28;20204;-12
2022/03/24 00:21:18;;;;;;;3.97;3.33;;;18.30;45.10;;;;;;5018362;28;20232;-12
2022/03/24 00:23:44;;;;;;;4.10;3.40;;;18.30;45.20;;;;;;5035506;28;20339;-12
2022/03/24 00:26:10;;;;;;;4.13;3.73;;;18.30;45.20;;;;;;5034655;28;20174;-12
2022/03/24 00:28:36;;;;;;;3.63;3.30;;;18.20;45.10;;;;;;5015969;28;20215;-12
2022/03/24 00:31:02;;;;;;;3.90;3.50;;;18.20;45.10;;;;;;5017075;28;20173;-12
2022/03/24 00:33:28;;;;;;;3.80;3.20;;;18.20;45.10;;;;;;5033697;28;20181;-12
2022/03/24 00:35:55;;;;;;;3.60;3.30;;;18.20;45.10;;;;;;5035020;28;20216;-12
2022/03/24 00:38:21;;;;;;;4.30;3.30;;;18.20;45.10;;;;;;5035032;28;20176;-11
2022/03/24 00:40:48;;;;;;;3.70;3.40;;;18.20;45.10;;;;;;5017338;28;20205;-12
2022/03/24 00:43:13;;;;;;;3.83;3.43;;;18.20;45.10;;;;;;5034591;28;20202;-12
2022/03/24 00:45:40;;;;;;;6.63;3.30;;;18.20;45.20;;;;;;5034011;28;20182;-12
2022/03/24 00:48:10;;;;;;;3.83;3.47;;;18.20;45.10;;;;;;5033963;28;20195;-12
2022/03/24 00:50:36;;;;;;;3.77;3.37;;;18.10;45.10;;;;;;5033065;28;20183;-12
2022/03/24 00:53:02;;;;;;;4.47;2.97;;;18.20;45.10;;;;;;5033517;28;20165;-12
2022/03/24 00:55:29;;;;;;;3.77;3.30;;;18.10;45.10;;;;;;5033085;28;20166;-12
2022/03/24 00:57:55;;;;;;;3.80;3.40;;;18.10;45.10;;;;;;5017153;28;20488;-11
2022/03/24 01:00:25;;;;;;;3.73;3.33;;;18.10;45.10;;;;;;5017876;28;20534;-12
2022/03/24 01:02:53;;;;;;;3.77;3.40;;;18.10;45.10;;;;;;5017865;28;20257;-11
2022/03/24 01:05:21;;;;;;;3.90;3.50;;;18.10;45.10;;;;;;5018101;28;20483;-12
2022/03/24 01:07:47;;;;;;;3.40;3.10;;;18.10;45.10;;;;;;5016866;28;20191;-11
2022/03/24 01:10:15;;;;;;;4.13;3.60;;;18.10;45.10;;;;;;5034480;28;20176;-12
2022/03/24 01:12:42;;;;;;;3.97;3.37;;;18.10;45.10;;;;;;5033868;28;20381;-12
2022/03/24 01:15:16;;;;;;;3.90;3.50;;;18.10;45.10;;;;;;5016033;28;20238;-11
2022/03/24 01:17:42;;;;;;;3.70;3.20;;;18.10;45.10;;;;;;5032953;28;20195;-11
2022/03/24 01:20:09;;;;;;;3.47;3.13;;;18.10;45.10;;;;;;5015977;28;20187;-11
2022/03/24 01:22:35;;;;;;;3.20;2.90;;;18.00;45.10;;;;;;5015993;28;20216;-11
2022/03/24 01:25:02;;;;;;;3.60;3.13;;;18.00;45.10;;;;;;5014688;28;20181;-12
2022/03/24 01:27:28;;;;;;;3.77;3.47;;;18.00;45.10;;;;;;5032481;28;20623;-12
2022/03/24 01:29:55;;;;;;;3.40;3.10;;;18.00;45.20;;;;;;5026052;28;20210;-12
2022/03/24 01:32:21;;;;;;;3.97;3.57;;;18.00;45.30;;;;;;5000376;28;20175;-12
2022/03/24 01:34:48;;;;;;;3.50;3.03;;;18.00;45.10;;;;;;5001546;28;20748;-12
2022/03/24 01:37:14;;;;;;;3.70;3.37;;;18.00;45.00;;;;;;5017943;28;20183;-11
2022/03/24 01:39:40;;;;;;;3.70;3.10;;;18.00;45.00;;;;;;5001286;28;20181;-11
2022/03/24 01:42:06;;;;;;;3.50;3.20;;;18.00;45.40;;;;;;5017850;28;20325;-12
2022/03/24 01:44:34;;;;;;;3.47;3.17;;;18.00;45.00;;;;;;5018313;28;20154;-11
2022/03/24 01:47:05;;;;;;;3.70;3.30;;;18.00;45.00;;;;;;5018880;28;20210;-12
2022/03/24 01:49:37;;;;;;;3.40;3.07;;;18.00;45.00;;;;;;5018377;28;20676;-12
2022/03/24 01:52:07;;;;;;;3.87;3.47;;;18.00;45.00;;;;;;5011218;28;20609;-12
2022/03/24 01:54:33;;;;;;;3.60;3.30;;;18.00;45.00;;;;;;5018070;28;20167;-12
2022/03/24 01:56:59;;;;;;;3.73;3.43;;;18.00;44.90;;;;;;5018505;28;20163;-11
2022/03/24 01:59:25;;;;;;;3.30;3.00;;;18.00;44.90;;;;;;5000101;28;20188;-12
2022/03/24 02:01:52;;;;;;;3.57;3.27;;;18.00;44.90;;;;;;5017982;28;20191;-11
2022/03/24 02:04:19;;;;;;;3.60;3.20;;;18.00;44.90;;;;;;5017612;28;20700;-11
2022/03/24 02:06:45;;;;;;;4.13;3.00;;;18.00;44.90;;;;;;5018359;28;20190;-12
2022/03/24 02:09:13;;;;;;;3.63;2.93;;;18.00;44.90;;;;;;5018566;28;20278;-12
2022/03/24 02:11:40;;;;;;;5.10;3.40;;;18.00;44.90;;;;;;4984868;28;20178;-11
2022/03/24 02:14:06;;;;;;;3.73;3.37;;;18.00;44.80;;;;;;5018616;28;20181;-11
2022/03/24 02:16:38;;;;;;;3.87;3.47;;;18.00;44.80;;;;;;5018504;28;20186;-11
2022/03/24 02:19:12;;;;;;;4.03;3.20;;;18.00;44.80;;;;;;5017973;28;20186;-12
2022/03/24 02:21:42;;;;;;;3.50;3.20;;;18.00;44.80;;;;;;4999541;28;20175;-11
2022/03/24 02:24:09;;;;;;;4.07;3.30;;;18.00;44.80;;;;;;5000696;28;20278;-12
2022/03/24 02:26:36;;;;;;;3.40;3.10;;;18.00;44.80;;;;;;4999909;28;20185;-11
2022/03/24 02:29:06;;;;;;;3.70;3.23;;;18.00;44.70;;;;;;5017663;28;20184;-12
2022/03/24 02:31:34;;;;;;;3.63;3.10;;;18.00;44.70;;;;;;5000384;28;20182;-12
2022/03/24 02:36:45;;;;;;;3.63;3.10;;;18.00;44.70;;;;;;5018012;28;20204;-11
2022/03/24 02:39:12;;;;;;;3.60;3.30;;;18.00;44.70;;;;;;5017446;28;20200;-11
2022/03/24 02:41:52;;;;;;;3.50;3.20;;;18.00;44.70;;;;;;5017129;28;20187;-11
2022/03/24 02:44:22;;;;;;;3.73;3.30;;;18.00;44.70;;;;;;5017082;28;20574;-11
2022/03/24 02:46:53;;;;;;;3.67;3.20;;;18.00;44.70;;;;;;4999866;28;20192;-12
2022/03/24 02:49:22;;;;;;;3.73;3.37;;;18.00;44.60;;;;;;5000017;28;20276;-11
2022/03/24 02:51:52;;;;;;;3.23;2.93;;;18.00;44.60;;;;;;5017823;28;20471;-11
2022/03/24 02:54:19;;;;;;;3.70;3.30;;;18.00;44.60;;;;;;5000347;28;20197;-11
2022/03/24 02:56:50;;;;;;;3.87;3.27;;;18.00;44.70;;;;;;5017704;28;20183;-11
2022/03/24 02:59:16;;;;;;;3.50;3.20;;;18.00;44.60;;;;;;5017705;28;20294;-12
2022/03/24 03:01:54;;;;;;;3.63;3.10;;;18.00;44.60;;;;;;5000842;28;20181;-11
2022/03/24 03:04:23;;;;;;;3.80;3.30;;;18.00;44.60;;;;;;5017505;28;20250;-12
2022/03/24 03:06:49;;;;;;;3.70;3.40;;;18.00;44.60;;;;;;4999587;28;20188;-12
2022/03/24 03:09:17;;;;;;;2.93;2.60;;;18.00;44.60;;;;;;4999605;28;20202;-11
2022/03/24 03:11:46;;;;;;;3.43;3.13;;;18.00;44.50;;;;;;4998516;28;20182;-11
2022/03/24 03:14:17;;;;;;;3.43;3.13;;;18.00;44.50;;;;;;5000764;28;20625;-12
2022/03/24 03:16:44;;;;;;;3.40;3.10;;;18.00;44.50;;;;;;5017517;28;20248;-12
2022/03/24 03:19:14;;;;;;;3.60;3.20;;;18.00;44.50;;;;;;5017997;28;20168;-12
2022/03/24 03:21:40;;;;;;;3.23;2.93;;;18.00;44.50;;;;;;5000301;28;20194;-11
2022/03/24 03:24:12;;;;;;;4.27;3.57;;;18.00;44.50;;;;;;5000543;28;20180;-11
2022/03/24 03:26:39;;;;;;;3.40;3.10;;;17.90;44.50;;;;;;5017332;28;20155;-12
2022/03/24 03:29:06;;;;;;;4.77;3.17;;;17.90;44.50;;;;;;5000267;28;20223;-11
2022/03/24 03:31:34;;;;;;;4.00;3.60;;;17.90;44.50;;;;;;5016934;28;20217;-11
2022/03/24 03:34:07;;;;;;;4.43;3.50;;;17.90;44.50;;;;;;5017021;28;20173;-11
2022/03/24 03:36:33;;;;;;;3.27;2.93;;;17.90;44.50;;;;;;5000413;28;20176;-11
2022/03/24 03:39:00;;;;;;;4.53;3.13;;;17.90;44.50;;;;;;5018086;28;20584;-12
2022/03/24 03:41:28;;;;;;;3.83;3.30;;;17.90;44.50;;;;;;5000362;28;20201;-11
2022/03/24 03:43:55;;;;;;;3.67;3.30;;;17.90;44.50;;;;;;5000627;28;20190;-12
2022/03/24 03:46:21;;;;;;;4.10;3.30;;;17.80;44.50;;;;;;5000102;28;20185;-11
2022/03/24 03:48:47;;;;;;;3.83;3.27;;;17.80;44.60;;;;;;5017184;28;20490;-11
2022/03/24 03:51:13;;;;;;;3.60;3.30;;;17.80;44.60;;;;;;5000070;28;20172;-11
2022/03/24 03:53:39;;;;;;;4.03;3.53;;;17.70;44.60;;;;;;5016391;28;20266;-12
2022/03/24 03:56:06;;;;;;;4.47;3.00;;;17.70;44.60;;;;;;5017007;28;20919;-12
2022/03/24 03:58:37;;;;;;;5.03;3.50;;;17.70;44.70;;;;;;4998989;28;20212;-11
2022/03/24 04:01:08;;;;;;;3.90;3.43;;;17.60;44.70;;;;;;4999401;28;20455;-11
2022/03/24 04:03:37;;;;;;;3.70;3.30;;;17.60;44.70;;;;;;5000234;28;20177;-12
2022/03/24 04:06:09;;;;;;;3.70;3.40;;;17.50;44.60;;;;;;5001276;28;20202;-11
2022/03/24 04:08:38;;;;;;;3.93;3.30;;;17.50;44.70;;;;;;5003241;28;20489;-11
2022/03/24 04:11:07;;;;;;;4.70;3.50;;;17.50;44.70;;;;;;5020761;28;20190;-11
2022/03/24 04:13:34;;;;;;;3.50;3.20;;;17.70;44.60;;;;;;5020280;28;20597;-11
2022/03/24 04:16:01;;;;;;;3.83;3.47;;;19.30;43.80;;;;;;5019630;28;20216;-12
2022/03/24 04:18:26;;;;;;;3.60;3.30;;;20.80;41.70;;;;;;5019792;28;20624;-11
2022/03/24 04:20:52;;;;;;;3.60;3.30;;;22.00;40.40;;;;;;5020385;28;20771;-11
2022/03/24 04:23:19;;;;;;;4.30;3.70;;;22.80;39.30;;;;;;5020074;28;20181;-11
2022/03/24 04:25:45;;;;;;;3.33;3.03;;;23.30;38.70;;;;;;5003150;28;20235;-12
2022/03/24 04:28:11;;;;;;;4.27;3.50;;;23.60;38.30;;;;;;5018923;28;20185;-12
2022/03/24 04:30:37;;;;;;;3.83;3.53;;;23.70;38.10;;;;;;5020176;28;20158;-12
2022/03/24 04:33:04;;;;;;;3.70;3.30;;;23.70;38.10;;;;;;5002787;28;20185;-12
2022/03/24 04:35:31;;;;;;;3.53;3.23;;;23.60;38.10;;;;;;5019379;28;20174;-12
2022/03/24 04:37:59;;;;;;;3.63;3.33;;;23.40;38.20;;;;;;5019743;28;20259;-12
2022/03/24 04:40:26;;;;;;;3.73;3.40;;;23.20;38.40;;;;;;5002394;28;20261;-12
2022/03/24 04:42:54;;;;;;;3.93;3.30;;;22.90;38.50;;;;;;5002386;28;20182;-12
2022/03/24 04:45:21;;;;;;;4.80;3.80;;;22.70;38.80;;;;;;5002479;28;20176;-12
2022/03/24 04:47:54;;;;;;;3.50;3.20;;;22.30;39.00;;;;;;5002673;28;20202;-12
2022/03/24 04:50:20;;;;;;;4.07;3.67;;;22.10;39.30;;;;;;5002016;28;20467;-12
2022/03/24 04:52:47;;;;;;;4.00;3.07;;;21.90;39.50;;;;;;5019073;28;20167;-12
2022/03/24 04:55:13;;;;;;;3.70;3.40;;;21.60;39.70;;;;;;5019866;28;20176;-12
2022/03/24 04:57:42;;;;;;;3.67;3.27;;;21.40;39.90;;;;;;5002841;28;20556;-12
2022/03/24 05:00:10;;;;;;;3.70;3.30;;;21.20;40.10;;;;;;5018333;28;20186;-12
2022/03/24 05:02:37;;;;;;;3.93;3.53;;;21.00;40.30;;;;;;5018757;28;20257;-12
2022/03/24 05:05:03;;;;;;;3.80;3.50;;;20.80;40.50;;;;;;5018534;28;20171;-12
2022/03/24 05:07:29;;;;;;;3.90;3.47;;;20.60;40.70;;;;;;5002496;28;20225;-12
2022/03/24 05:09:54;;;;;;;3.67;3.37;;;20.40;40.90;;;;;;5002209;28;20229;-12
2022/03/24 05:12:20;;;;;;;3.60;3.30;;;20.20;41.10;;;;;;5018987;28;20174;-12
2022/03/24 05:14:46;;;;;;;4.03;3.43;;;20.00;41.30;;;;;;5019544;28;20195;-12
2022/03/24 05:17:12;;;;;;;3.77;3.10;;;19.90;41.50;;;;;;5001245;28;20210;-12
2022/03/24 05:19:44;;;;;;;3.57;3.27;;;19.70;41.60;;;;;;5017990;28;20667;-12
2022/03/24 05:22:09;;;;;;;4.20;3.40;;;19.50;41.80;;;;;;5018298;28;20241;-12
2022/03/24 05:24:37;;;;;;;4.07;3.47;;;19.40;42.00;;;;;;5001906;28;20273;-12
2022/03/24 05:27:05;;;;;;;3.70;3.40;;;19.20;42.10;;;;;;5001368;28;20568;-12
2022/03/24 05:29:31;;;;;;;3.67;3.37;;;19.10;42.30;;;;;;5000158;28;20489;-12
2022/03/24 05:31:57;;;;;;;3.47;3.17;;;18.90;42.40;;;;;;5001260;28;20560;-12
2022/03/24 05:34:23;;;;;;;4.20;3.50;;;18.80;42.50;;;;;;5001135;28;20194;-12
2022/03/24 05:36:50;;;;;;;3.87;3.50;;;18.70;42.70;;;;;;5017947;28;20208;-12
2022/03/24 05:39:16;;;;;;;3.40;3.10;;;18.60;42.80;;;;;;5018337;28;20205;-12
2022/03/24 05:41:41;;;;;;;3.70;3.40;;;18.50;42.80;;;;;;5008229;28;20233;-12
2022/03/24 05:44:07;;;;;;;3.93;3.53;;;18.50;42.90;;;;;;5030584;28;20999;-12
2022/03/24 05:46:36;;;;;;;4.23;3.83;;;18.40;43.00;;;;;;5012319;28;20201;-12
2022/03/24 05:49:06;;;;;;;3.83;3.33;;;18.40;43.00;;;;;;5030453;28;20193;-12
2022/03/24 05:51:32;;;;;;;3.80;3.43;;;18.40;43.00;;;;;;5017006;28;20172;-12
2022/03/24 05:53:58;;;;;;;3.77;3.40;;;18.40;43.00;;;;;;4993459;28;20181;-12
2022/03/24 05:56:24;;;;;;;3.40;3.10;;;18.50;42.90;;;;;;4993802;28;20235;-12
2022/03/24 05:58:50;;;;;;;3.77;3.40;;;18.50;42.80;;;;;;5011250;28;20178;-12
2022/03/24 06:01:17;;;;;;;3.80;3.40;;;18.70;42.70;;;;;;4992565;28;20267;-12
2022/03/24 06:03:45;;;;;;;4.47;3.27;;;19.30;42.40;;;;;;5022834;28;20194;-11
2022/03/24 06:06:12;;;;;;;4.00;3.50;;;19.80;41.80;;;;;;5029059;28;20181;-12
2022/03/24 06:08:42;;;;;;;3.53;3.23;;;20.40;41.10;;;;;;5027758;28;20467;-12
2022/03/24 06:11:09;;;;;;;4.00;3.37;;;21.20;40.30;;;;;;5028861;28;20536;-12
2022/03/24 06:13:36;;;;;;;3.77;3.47;;;21.70;39.80;;;;;;5032455;28;20354;-12
2022/03/24 06:16:01;;;;;;;3.40;3.10;;;22.30;39.60;;;;;;5029321;28;20176;-12
2022/03/24 06:18:28;;;;;;;3.73;3.37;;;22.70;38.70;;;;;;5029280;28;20299;-12
2022/03/24 06:20:54;;;;;;;4.87;3.43;;;22.80;38.30;;;;;;5011661;28;20176;-12
2022/03/24 06:23:20;;;;;;;3.57;3.27;;;23.00;38.20;;;;;;5028485;28;20287;-12
2022/03/24 06:25:45;;;;;;;3.40;3.10;;;23.10;38.10;;;;;;5029352;28;20481;-12
2022/03/24 06:28:11;;;;;;;4.37;3.97;;;23.00;38.00;;;;;;5034600;28;20230;-12
2022/03/24 06:30:37;;;;;;;3.57;3.27;;;22.90;38.10;;;;;;5032793;28;20294;-12
2022/03/24 06:33:03;;;;;;;3.80;3.50;;;22.70;38.30;;;;;;5034366;28;20193;-12
2022/03/24 06:35:29;;;;;;;4.37;3.93;;;22.50;38.40;;;;;;5017094;28;20171;-12
2022/03/24 06:37:55;;;;;;;3.77;3.37;;;22.40;39.00;;;;;;5017094;28;20276;-12
2022/03/24 06:40:21;;;;;;;3.70;3.37;;;22.10;38.70;;;;;;5017125;28;20181;-12
2022/03/24 06:42:50;;;;;;;3.87;3.37;;;22.00;39.00;;;;;;5017241;28;20241;-12
2022/03/24 06:45:16;;;;;;;5.40;3.60;;;21.80;39.20;;;;;;5034898;28;20165;-12
2022/03/24 06:47:42;;;;;;;4.40;3.80;;;21.60;39.40;;;;;;5017789;28;20184;-12
2022/03/24 06:50:10;;;;;;;3.73;3.33;;;21.50;39.60;;;;;;5034037;28;20633;-12
2022/03/24 06:52:37;;;;;;;4.33;3.50;;;21.30;39.80;;;;;;5017141;28;20184;-12
2022/03/24 06:55:05;;;;;;;4.17;3.60;;;21.20;40.00;;;;;;5017477;28;20183;-12
2022/03/24 06:57:31;;;;;;;4.80;3.87;;;21.10;40.20;;;;;;5034792;28;20231;-12
2022/03/24 06:59:57;;;;;;;5.17;3.97;;;20.90;40.40;;;;;;5017773;28;20188;-12
2022/03/24 07:02:23;;;;;;;9.23;4.10;;;20.80;40.50;;;;;;5013354;28;20406;-12
2022/03/24 07:04:49;;;;;;;5.20;3.70;;;20.80;40.70;;;;;;5008921;28;20184;-12
2022/03/24 07:07:14;;;;;;;5.83;3.80;;;20.70;40.80;;;;;;5027044;28;20177;-12
2022/03/24 07:09:40;;;;;;;4.37;3.83;;;20.70;41.00;;;;;;5031439;28;20611;-12
2022/03/24 07:12:06;;;;;;;4.40;3.83;;;20.60;41.00;;;;;;5028522;28;20612;-12
2022/03/24 07:14:32;;;;;;;4.50;4.00;;;20.50;41.10;;;;;;5009854;28;20275;-12
2022/03/24 07:16:58;;;;;;;6.10;4.40;;;20.50;41.20;;;;;;5027728;28;20274;-12
2022/03/24 07:19:25;;;;;;;6.43;4.00;;;20.50;41.30;;;;;;5008894;28;20180;-12
2022/03/24 07:21:50;;;;;;;5.10;4.47;;;20.50;41.30;;;;;;5026985;28;20412;-12
2022/03/24 07:24:16;;;;;;;6.30;4.17;;;20.50;41.40;;;;;;5027381;28;20483;-12
2022/03/24 07:26:42;;;;;;;5.00;4.33;;;20.50;41.40;;;;;;5008794;28;20197;-12
2022/03/24 07:29:10;;;;;;;5.53;4.30;;;20.40;41.40;;;;;;5026091;28;20207;-12
2022/03/24 07:31:36;;;;;;;8.90;4.77;;;20.40;41.40;;;;;;5008686;28;20177;-12
2022/03/24 07:34:03;;;;;;;5.83;4.67;;;20.40;41.50;;;;;;5009729;28;20168;-12
2022/03/24 07:36:28;;;;;;;6.20;4.90;;;20.40;41.50;;;;;;5008507;28;20190;-12
2022/03/24 07:38:57;;;;;;;12.10;5.20;;;20.50;41.60;;;;;;5024802;28;20188;-12
2022/03/24 07:41:23;;;;;;;7.83;5.13;;;20.50;41.60;;;;;;5007911;28;20181;-12
2022/03/24 07:43:50;;;;;;;10.13;4.93;;;20.50;41.50;;;;;;5029860;28;20176;-12
2022/03/24 07:46:16;;;;;;;8.43;5.97;;;20.50;41.50;;;;;;5029184;28;20566;-12
2022/03/24 07:48:46;;;;;;;8.10;6.00;;;20.60;41.50;;;;;;5010660;28;20503;-10
2022/03/24 07:51:12;;;;;;;9.33;6.00;;;20.60;41.40;;;;;;5000187;28;20243;-11
2022/03/24 07:53:45;;;;;;;10.70;6.67;;;20.70;41.30;;;;;;5032773;28;20271;-12
2022/03/24 07:56:10;;;;;;;8.53;6.47;;;20.70;41.30;;;;;;5025178;28;20235;-11
2022/03/24 07:58:36;;;;;;;12.40;7.03;;;20.80;41.20;;;;;;5036283;28;20188;-11
2022/03/24 08:01:02;;;;;;;10.23;7.50;;;20.90;41.10;;;;;;5036656;28;20173;-11
2022/03/24 08:03:29;;;;;;;11.23;7.53;;;20.90;41.00;;;;;;5036357;28;20177;-11
2022/03/24 08:05:55;;;;;;;13.57;8.30;;;21.10;40.90;;;;;;5036181;28;20181;-11
2022/03/24 08:08:21;;;;;;;8.00;7.20;;;21.20;40.70;;;;;;5037462;28;20181;-11
2022/03/24 08:10:49;;;;;;;13.30;7.50;;;21.40;40.70;;;;;;5036568;28;20216;-11
2022/03/24 08:13:17;;;;;;;10.03;7.30;;;21.40;40.50;;;;;;5003329;28;20177;-11
2022/03/24 08:15:44;;;;;;;8.00;7.17;;;21.60;40.40;;;;;;5036969;28;20263;-11
2022/03/24 08:18:11;;;;;;;10.00;8.00;;;21.70;40.30;;;;;;5037547;28;20197;-11
2022/03/24 08:20:37;;;;;;;11.80;7.73;;;21.70;40.20;;;;;;5020738;28;20243;-12
2022/03/24 08:23:04;;;;;;;9.90;6.70;;;21.80;40.10;;;;;;5019378;28;20264;-11
2022/03/24 08:25:30;;;;;;;11.57;7.63;;;21.90;40.00;;;;;;5037038;28;20562;-11
2022/03/24 08:27:59;;;;;;;11.73;7.50;;;22.00;39.90;;;;;;5019775;28;20636;-11
2022/03/24 08:30:25;;;;;;;10.27;7.47;;;22.00;39.90;;;;;;5037237;28;20193;-11
2022/03/24 08:32:51;;;;;;;11.77;7.43;;;22.00;39.80;;;;;;5037778;28;20205;-12
2022/03/24 08:35:17;;;;;;;11.73;7.07;;;22.10;39.80;;;;;;5038359;28;20235;-12
2022/03/24 08:37:44;;;;;;;11.30;8.17;;;22.10;39.80;;;;;;5037508;28;20181;-12
2022/03/24 08:40:11;;;;;;;10.63;7.47;;;22.00;39.70;;;;;;5020399;28;20238;-11
2022/03/24 08:42:37;;;;;;;10.23;7.60;;;22.10;39.80;;;;;;5037366;28;20177;-11
2022/03/24 08:45:13;;;;;;;9.17;7.70;;;22.00;39.70;;;;;;5019457;28;20275;-12
2022/03/24 08:47:40;;;;;;;9.40;7.73;;;22.10;39.80;;;;;;5035356;28;20226;-12
2022/03/24 08:50:07;;;;;;;10.37;7.90;;;22.00;39.70;;;;;;5036242;28;20211;-12
2022/03/24 08:52:35;;;;;;;9.97;7.67;;;22.10;39.80;;;;;;5019729;28;20238;-11
2022/03/24 08:55:02;;;;;;;11.33;7.87;;;22.10;39.80;;;;;;5019591;28;20645;-12
2022/03/24 08:57:28;;;;;;;11.90;9.00;;;22.10;39.80;;;;;;5037208;28;20717;-12
2022/03/24 08:59:56;;;;;;;11.40;8.77;;;22.10;39.80;;;;;;5036887;28;20188;-12
2022/03/24 09:02:22;;;;;;;9.77;8.17;;;22.10;39.80;;;;;;5036306;28;20200;-12
2022/03/24 09:04:48;;;;;;;10.50;8.03;;;22.10;39.80;;;;;;5018629;28;20550;-12
2022/03/24 09:07:17;;;;;;;10.30;8.60;;;22.10;39.80;;;;;;5017242;28;20200;-12
2022/03/24 09:09:43;;;;;;;10.90;8.60;;;22.10;39.80;;;;;;5007922;28;20209;-12
2022/03/24 09:12:09;;;;;;;9.63;8.63;;;22.20;39.80;;;;;;5023806;28;20970;-12
2022/03/24 09:14:40;;;;;;;9.60;8.23;;;22.20;39.70;;;;;;5020325;28;20196;-12
2022/03/24 09:17:08;;;;;;;9.57;7.93;;;22.20;39.70;;;;;;5026572;28;20168;-12
2022/03/24 09:19:34;;;;;;;10.07;9.07;;;22.30;39.70;;;;;;5001475;28;20182;-12
2022/03/24 09:22:01;;;;;;;12.07;9.43;;;22.30;39.70;;;;;;4999771;28;20196;-12
2022/03/24 09:24:27;;;;;;;10.35;8.88;;;22.30;39.60;;;;;;5029392;28;20249;-12
2022/03/24 09:26:53;;;;;;;13.40;9.57;;;22.40;39.70;;;;;;5019393;28;20211;-12
2022/03/24 09:29:19;;;;;;;11.97;9.63;;;22.30;39.60;;;;;;5035683;28;20204;-12
2022/03/24 09:31:47;;;;;;;11.45;9.20;;;22.40;39.60;;;;;;5035672;28;20255;-12
2022/03/24 09:34:13;;;;;;;12.98;9.23;;;22.40;39.60;;;;;;5036025;28;20173;-12
2022/03/24 09:36:39;;;;;;;12.07;9.73;;;22.20;39.50;;;;;;5018679;28;20280;-13
2022/03/24 09:39:07;;;;;;;14.10;9.38;;;22.00;39.70;;;;;;5036106;28;20245;-12
2022/03/24 09:41:34;;;;;;;12.10;10.10;;;21.60;40.00;;;;;;5018951;28;20165;-12
2022/03/24 09:44:03;;;;;;;11.57;9.80;;;21.40;40.30;;;;;;5036415;28;20168;-12
2022/03/24 09:46:29;;;;;;;13.80;10.18;;;21.10;40.60;;;;;;5036005;28;20185;-12
2022/03/24 09:48:56;;;;;;;11.38;10.13;;;20.90;40.80;;;;;;5036063;28;20197;-12
2022/03/24 09:51:22;;;;;;;12.98;10.38;;;20.80;41.00;;;;;;5018798;28;20173;-12
2022/03/24 09:53:50;;;;;;;12.43;10.40;;;20.70;41.20;;;;;;5018434;28;20515;-12
2022/03/24 09:56:16;;;;;;;13.10;10.63;;;20.70;41.30;;;;;;5035684;28;20264;-12
2022/03/24 09:58:44;;;;;;;14.63;10.57;;;20.60;41.40;;;;;;5001776;28;20720;-13
2022/03/24 10:01:13;;;;;;;11.50;10.30;;;20.60;41.40;;;;;;5035761;28;20161;-12
2022/03/24 10:04:01;;;;;;;12.15;10.27;;;20.50;41.50;;;;;;5035075;28;20176;-12
2022/03/24 10:06:27;;;;;;;12.38;9.95;;;20.50;41.50;;;;;;5034793;28;20235;-12
2022/03/24 10:08:52;;;;;;;11.38;10.23;;;20.50;41.50;;;;;;5035126;28;20662;-12
2022/03/24 10:11:18;;;;;;;13.77;10.73;;;20.50;41.50;;;;;;5018359;28;20773;-12
2022/03/24 10:13:47;;;;;;;11.60;10.40;;;20.50;41.60;;;;;;5018750;28;20168;-12
2022/03/24 10:16:32;;;;;;;11.18;9.98;;;20.50;41.70;;;;;;5034988;28;20169;-12
2022/03/24 10:19:13;;;;;;;12.73;9.80;;;20.50;41.70;;;;;;5034525;28;20179;-13
2022/03/24 10:21:42;;;;;;;14.13;10.10;;;20.50;41.70;;;;;;5018067;28;20200;-12
2022/03/24 10:24:16;;;;;;;11.80;10.13;;;20.50;41.80;;;;;;5034942;28;20184;-12
2022/03/24 10:27:00;;;;;;;13.00;10.03;;;20.50;41.80;;;;;;5035523;28;20189;-12
2022/03/24 10:29:27;;;;;;;11.50;10.10;;;20.40;41.80;;;;;;5017323;28;20212;-12
2022/03/24 10:31:59;;;;;;;12.80;10.47;;;20.50;41.90;;;;;;5018007;28;20271;-12
2022/03/24 10:34:32;;;;;;;13.27;9.87;;;20.40;41.80;;;;;;5034353;28;20804;-12
2022/03/24 10:37:02;;;;;;;11.47;10.27;;;20.50;41.90;;;;;;5034376;28;20207;-12
2022/03/24 10:39:28;;;;;;;10.20;9.10;;;20.50;41.90;;;;;;5034198;28;20242;-12
2022/03/24 10:42:09;;;;;;;10.60;9.20;;;20.40;41.90;;;;;;5034511;28;20177;-12
2022/03/24 10:44:40;;;;;;;12.43;9.67;;;20.50;41.90;;;;;;5017183;28;20524;-12
2022/03/24 10:47:05;;;;;;;11.50;9.17;;;20.50;42.00;;;;;;5017525;28;20173;-12
2022/03/24 10:49:32;;;;;;;11.20;9.33;;;20.40;41.90;;;;;;5016410;28;20270;-12
2022/03/24 10:52:00;;;;;;;10.30;8.67;;;20.40;42.00;;;;;;5017430;28;20300;-12
2022/03/24 10:54:51;;;;;;;10.77;8.63;;;20.40;42.00;;;;;;5017056;28;20169;-11
2022/03/24 10:57:21;;;;;;;8.97;8.00;;;20.50;42.10;;;;;;5017680;28;20177;-11
2022/03/24 10:59:58;;;;;;;9.50;8.23;;;20.50;42.10;;;;;;5033268;28;20574;-11
2022/03/24 11:02:25;;;;;;;11.63;8.27;;;20.40;42.00;;;;;;5015987;28;20187;-11
2022/03/24 11:04:51;;;;;;;11.07;8.60;;;20.40;42.00;;;;;;5033607;28;20176;-11
2022/03/24 11:07:27;;;;;;;9.13;8.17;;;20.50;42.10;;;;;;5022577;28;20249;-11
2022/03/24 11:09:53;;;;;;;9.57;7.80;;;20.40;42.10;;;;;;5021312;28;20211;-12
2022/03/24 11:12:38;;;;;;;11.47;8.27;;;20.50;42.10;;;;;;5034065;28;20157;-11
2022/03/24 11:15:07;;;;;;;9.33;7.50;;;20.50;42.50;;;;;;5012768;28;20195;-11
2022/03/24 11:17:38;;;;;;;10.77;8.30;;;20.40;42.10;;;;;;5027900;28;20269;-11
2022/03/24 11:20:24;;;;;;;9.83;8.40;;;20.40;42.10;;;;;;5031326;28;20273;-11
2022/03/24 11:23:16;;;;;;;8.13;7.27;;;20.50;42.20;;;;;;5011092;28;20608;-11
2022/03/24 11:25:43;;;;;;;9.50;7.60;;;20.40;42.10;;;;;;5028493;28;20609;-11
2022/03/24 11:28:13;;;;;;;8.57;7.40;;;20.50;42.20;;;;;;5023155;28;20274;-11
2022/03/24 11:30:39;;;;;;;9.43;8.40;;;20.50;42.20;;;;;;5030406;28;20604;-11
2022/03/24 11:33:05;;;;;;;8.70;7.03;;;20.40;42.20;;;;;;4993631;28;20584;-11
2022/03/24 11:35:34;;;;;;;9.93;7.67;;;20.50;42.20;;;;;;5011211;28;20194;-11
2022/03/24 11:38:02;;;;;;;8.10;7.10;;;20.40;42.20;;;;;;5010506;28;20590;-11
2022/03/24 11:40:31;;;;;;;10.17;8.10;;;20.50;42.30;;;;;;5009984;28;20757;-11
2022/03/24 11:43:05;;;;;;;8.37;7.50;;;20.50;42.30;;;;;;4992681;28;20188;-11
2022/03/24 11:45:48;;;;;;;11.00;7.50;;;20.50;42.30;;;;;;5018301;28;20186;-11
2022/03/24 11:48:17;;;;;;;9.20;7.73;;;20.50;42.30;;;;;;5028240;28;20564;-11
2022/03/24 11:50:55;;;;;;;8.27;6.60;;;20.50;42.20;;;;;;5027493;28;20501;-11
2022/03/24 11:53:30;;;;;;;9.50;7.70;;;20.50;42.30;;;;;;5013983;28;20181;-11
2022/03/24 11:55:59;;;;;;;10.03;7.57;;;20.40;42.20;;;;;;5033863;28;20176;-11
2022/03/24 11:58:37;;;;;;;8.17;7.33;;;20.50;42.20;;;;;;5016297;28;20460;-11
2022/03/24 12:01:17;;;;;;;10.77;8.47;;;20.50;42.20;;;;;;5035017;28;20168;-11
2022/03/24 12:03:46;;;;;;;10.30;7.83;;;20.50;42.10;;;;;;5030067;28;20484;-11
2022/03/24 12:06:14;;;;;;;9.97;6.97;;;20.40;42.10;;;;;;5010114;28;20188;-11
2022/03/24 12:08:51;;;;;;;8.93;7.23;;;20.40;42.20;;;;;;5025887;28;20193;-11
2022/03/24 12:11:53;;;;;;;9.00;6.90;;;20.50;42.20;;;;;;5026575;28;20169;-11
2022/03/24 12:14:45;;;;;;;7.47;6.77;;;20.50;42.30;;;;;;5015422;28;20513;-11
2022/03/24 12:17:32;;;;;;;9.57;7.83;;;20.40;42.30;;;;;;5009943;28;20239;-11
2022/03/24 12:20:00;;;;;;;9.93;7.60;;;20.50;42.20;;;;;;5027370;28;20176;-11
2022/03/24 12:22:25;;;;;;;9.43;7.47;;;20.50;42.20;;;;;;5008686;28;20284;-11
2022/03/24 12:25:00;;;;;;;11.63;8.10;;;20.40;42.10;;;;;;5009736;28;20272;-11
2022/03/24 12:27:27;;;;;;;9.33;7.67;;;20.40;42.10;;;;;;5027382;28;20554;-11
2022/03/24 12:30:12;;;;;;;8.97;7.07;;;20.40;42.20;;;;;;5035297;28;20201;-11
2022/03/24 12:32:39;;;;;;;9.23;7.40;;;20.40;42.20;;;;;;5018366;28;20178;-11
2022/03/24 12:35:06;;;;;;;10.90;7.57;;;20.40;42.30;;;;;;5010833;28;20181;-11
2022/03/24 12:37:32;;;;;;;8.00;6.70;;;20.40;42.30;;;;;;5028692;28;20444;-11
2022/03/24 12:40:10;;;;;;;9.60;7.90;;;20.40;42.30;;;;;;5010292;28;20180;-11
2022/03/24 12:43:02;;;;;;;9.20;7.30;;;20.40;42.20;;;;;;5010925;28;20188;-11
2022/03/24 12:45:30;;;;;;;9.83;7.00;;;20.40;42.10;;;;;;5025382;28;20188;-11
2022/03/24 12:48:10;;;;;;;8.97;7.17;;;20.40;42.20;;;;;;5027577;28;20303;-11
2022/03/24 12:50:42;;;;;;;8.20;7.30;;;20.40;42.20;;;;;;5027275;28;20508;-11
2022/03/24 12:53:09;;;;;;;7.87;6.83;;;20.40;42.20;;;;;;5027162;28;20535;-11